sensor_id;sensor_type;location;lat;lon;timestamp;temperature;humidity
64918;HTU21D;52176;44.858;38.372;2022-10-16T00:02:21;8.37;78.66
64918;HTU21D;52176;44.858;38.372;2022-10-16T00:04:47;8.42;78.67
64918;HTU21D;52176;44.858;38.372;2022-10-16T00:07:13;8.45;78.68
64918;HTU21D;52176;44.858;38.372;2022-10-16T00:09:39;8.48;78.72
64918;HTU21D;52176;44.858;38.372;2022-10-16T00:12:04;8.49;78.73
64918;HTU21D;52176;44.858;38.372;2022-10-16T00:14:32;8.52;78.76
64918;HTU21D;52176;44.858;38.372;2022-10-16T00:16:57;8.55;78.80
64918;HTU21D;52176;44.858;38.372;2022-10-16T00:19:23;8.58;78.82
64918;HTU21D;52176;44.858;38.372;2022-10-16T00:21:49;8.59;78.82
64918;HTU21D;52176;44.858;38.372;2022-10-16T00:24:15;8.61;78.80
64918;HTU21D;52176;44.858;38.372;2022-10-16T00:26:41;8.63;78.78
64918;HTU21D;52176;44.858;38.372;2022-10-16T00:29:07;8.64;78.83
64918;HTU21D;52176;44.858;38.372;2022-10-16T00:31:34;8.65;78.90
64918;HTU21D;52176;44.858;38.372;2022-10-16T00:33:59;8.67;78.95
64918;HTU21D;52176;44.858;38.372;2022-10-16T00:36:26;8.68;78.98
64918;HTU21D;52176;44.858;38.372;2022-10-16T00:38:53;8.73;79.01
64918;HTU21D;52176;44.858;38.372;2022-10-16T00:41:20;8.74;78.94
64918;HTU21D;52176;44.858;38.372;2022-10-16T00:43:48;8.78;78.90
64918;HTU21D;52176;44.858;38.372;2022-10-16T00:48:48;8.82;78.82
64918;HTU21D;52176;44.858;38.372;2022-10-16T00:51:14;8.85;78.78
64918;HTU21D;52176;44.858;38.372;2022-10-16T00:53:40;8.86;78.72
64918;HTU21D;52176;44.858;38.372;2022-10-16T00:56:06;8.88;78.69
64918;HTU21D;52176;44.858;38.372;2022-10-16T00:58:32;8.89;78.71
64918;HTU21D;52176;44.858;38.372;2022-10-16T01:00:58;8.90;78.71
64918;HTU21D;52176;44.858;38.372;2022-10-16T01:03:28;8.92;78.72
64918;HTU21D;52176;44.858;38.372;2022-10-16T01:06:01;8.91;78.74
64918;HTU21D;52176;44.858;38.372;2022-10-16T01:08:39;8.92;78.73
64918;HTU21D;52176;44.858;38.372;2022-10-16T01:11:12;8.94;78.72
64918;HTU21D;52176;44.858;38.372;2022-10-16T01:13:43;8.94;78.75
64918;HTU21D;52176;44.858;38.372;2022-10-16T01:18:54;8.94;78.84
64918;HTU21D;52176;44.858;38.372;2022-10-16T01:31:26;8.98;78.95
64918;HTU21D;52176;44.858;38.372;2022-10-16T01:33:57;9.01;78.96
64918;HTU21D;52176;44.858;38.372;2022-10-16T01:36:26;9.02;79.00
64918;HTU21D;52176;44.858;38.372;2022-10-16T01:38:54;9.05;78.99
64918;HTU21D;52176;44.858;38.372;2022-10-16T01:41:26;9.07;78.98
64918;HTU21D;52176;44.858;38.372;2022-10-16T01:46:22;9.12;78.95
64918;HTU21D;52176;44.858;38.372;2022-10-16T01:48:48;9.12;78.95
64918;HTU21D;52176;44.858;38.372;2022-10-16T01:51:15;9.15;78.92
64918;HTU21D;52176;44.858;38.372;2022-10-16T01:53:41;9.16;78.92
64918;HTU21D;52176;44.858;38.372;2022-10-16T01:56:09;9.18;78.88
64918;HTU21D;52176;44.858;38.372;2022-10-16T01:58:42;9.19;78.82
64918;HTU21D;52176;44.858;38.372;2022-10-16T02:01:10;9.18;78.77
64918;HTU21D;52176;44.858;38.372;2022-10-16T02:03:37;9.21;78.74
64918;HTU21D;52176;44.858;38.372;2022-10-16T02:06:04;9.21;78.74
64918;HTU21D;52176;44.858;38.372;2022-10-16T02:08:30;9.23;78.69
64918;HTU21D;52176;44.858;38.372;2022-10-16T02:10:56;9.24;78.67
64918;HTU21D;52176;44.858;38.372;2022-10-16T02:15:52;9.26;78.58
64918;HTU21D;52176;44.858;38.372;2022-10-16T02:18:20;9.30;78.59
64918;HTU21D;52176;44.858;38.372;2022-10-16T02:20:57;9.32;78.57
64918;HTU21D;52176;44.858;38.372;2022-10-16T02:26:09;9.34;78.46
64918;HTU21D;52176;44.858;38.372;2022-10-16T02:28:49;9.34;78.39
64918;HTU21D;52176;44.858;38.372;2022-10-16T02:31:20;9.33;78.30
64918;HTU21D;52176;44.858;38.372;2022-10-16T02:33:49;9.31;78.30
64918;HTU21D;52176;44.858;38.372;2022-10-16T02:36:16;9.32;78.20
64918;HTU21D;52176;44.858;38.372;2022-10-16T02:38:43;9.30;78.18
64918;HTU21D;52176;44.858;38.372;2022-10-16T02:41:10;9.32;78.16
64918;HTU21D;52176;44.858;38.372;2022-10-16T02:43:36;9.33;78.08
64918;HTU21D;52176;44.858;38.372;2022-10-16T02:46:02;9.33;78.04
64918;HTU21D;52176;44.858;38.372;2022-10-16T02:48:28;9.36;78.03
64918;HTU21D;52176;44.858;38.372;2022-10-16T02:50:54;9.37;77.97
64918;HTU21D;52176;44.858;38.372;2022-10-16T02:53:20;9.39;77.95
64918;HTU21D;52176;44.858;38.372;2022-10-16T02:55:46;9.42;77.95
64918;HTU21D;52176;44.858;38.372;2022-10-16T02:58:12;9.44;77.98
64918;HTU21D;52176;44.858;38.372;2022-10-16T03:00:39;9.45;78.00
64918;HTU21D;52176;44.858;38.372;2022-10-16T03:03:05;9.46;77.97
64918;HTU21D;52176;44.858;38.372;2022-10-16T03:05:31;9.48;77.96
64918;HTU21D;52176;44.858;38.372;2022-10-16T03:07:57;9.48;77.85
64918;HTU21D;52176;44.858;38.372;2022-10-16T03:10:25;9.47;77.74
64918;HTU21D;52176;44.858;38.372;2022-10-16T03:12:51;9.45;77.64
64918;HTU21D;52176;44.858;38.372;2022-10-16T03:15:17;9.41;77.60
64918;HTU21D;52176;44.858;38.372;2022-10-16T03:17:43;9.38;77.57
64918;HTU21D;52176;44.858;38.372;2022-10-16T03:20:09;9.35;77.54
64918;HTU21D;52176;44.858;38.372;2022-10-16T03:22:35;9.34;77.60
64918;HTU21D;52176;44.858;38.372;2022-10-16T03:25:02;9.35;77.53
64918;HTU21D;52176;44.858;38.372;2022-10-16T03:27:28;9.36;77.44
64918;HTU21D;52176;44.858;38.372;2022-10-16T03:29:54;9.36;77.37
64918;HTU21D;52176;44.858;38.372;2022-10-16T03:32:20;9.35;77.31
64918;HTU21D;52176;44.858;38.372;2022-10-16T03:34:47;9.32;77.30
64918;HTU21D;52176;44.858;38.372;2022-10-16T03:37:13;9.31;77.30
64918;HTU21D;52176;44.858;38.372;2022-10-16T03:39:39;9.31;77.24
64918;HTU21D;52176;44.858;38.372;2022-10-16T03:42:05;9.32;77.20
64918;HTU21D;52176;44.858;38.372;2022-10-16T03:44:31;9.35;77.18
64918;HTU21D;52176;44.858;38.372;2022-10-16T03:46:57;9.35;77.10
64918;HTU21D;52176;44.858;38.372;2022-10-16T03:49:23;9.38;77.05
64918;HTU21D;52176;44.858;38.372;2022-10-16T03:51:49;9.37;77.00
64918;HTU21D;52176;44.858;38.372;2022-10-16T03:54:15;9.37;76.93
64918;HTU21D;52176;44.858;38.372;2022-10-16T03:56:41;9.36;76.89
64918;HTU21D;52176;44.858;38.372;2022-10-16T03:59:07;9.36;76.91
64918;HTU21D;52176;44.858;38.372;2022-10-16T04:01:33;9.37;76.85
64918;HTU21D;52176;44.858;38.372;2022-10-16T04:03:59;9.35;76.82
64918;HTU21D;52176;44.858;38.372;2022-10-16T04:06:25;9.35;76.79
64918;HTU21D;52176;44.858;38.372;2022-10-16T04:08:51;9.37;76.75
64918;HTU21D;52176;44.858;38.372;2022-10-16T04:11:17;9.37;76.70
64918;HTU21D;52176;44.858;38.372;2022-10-16T04:13:43;9.37;76.70
64918;HTU21D;52176;44.858;38.372;2022-10-16T04:16:09;9.39;76.65
64918;HTU21D;52176;44.858;38.372;2022-10-16T04:18:35;9.41;76.60
64918;HTU21D;52176;44.858;38.372;2022-10-16T04:21:03;9.42;76.56
64918;HTU21D;52176;44.858;38.372;2022-10-16T04:23:29;9.42;76.52
64918;HTU21D;52176;44.858;38.372;2022-10-16T04:25:55;9.46;76.51
64918;HTU21D;52176;44.858;38.372;2022-10-16T04:28:21;9.49;76.47
64918;HTU21D;52176;44.858;38.372;2022-10-16T04:30:47;9.52;76.40
64918;HTU21D;52176;44.858;38.372;2022-10-16T04:33:13;9.56;76.33
64918;HTU21D;52176;44.858;38.372;2022-10-16T04:35:39;9.60;76.31
64918;HTU21D;52176;44.858;38.372;2022-10-16T04:38:05;9.63;76.28
64918;HTU21D;52176;44.858;38.372;2022-10-16T04:40:31;9.67;76.23
64918;HTU21D;52176;44.858;38.372;2022-10-16T04:43:04;9.74;76.15
64918;HTU21D;52176;44.858;38.372;2022-10-16T04:45:31;9.75;76.08
64918;HTU21D;52176;44.858;38.372;2022-10-16T04:47:58;9.77;76.05
64918;HTU21D;52176;44.858;38.372;2022-10-16T04:50:25;9.79;76.02
64918;HTU21D;52176;44.858;38.372;2022-10-16T04:53:04;9.82;75.98
64918;HTU21D;52176;44.858;38.372;2022-10-16T04:55:30;9.84;75.96
64918;HTU21D;52176;44.858;38.372;2022-10-16T04:57:56;9.89;75.95
64918;HTU21D;52176;44.858;38.372;2022-10-16T05:00:22;9.95;75.90
64918;HTU21D;52176;44.858;38.372;2022-10-16T05:02:50;10.03;75.81
64918;HTU21D;52176;44.858;38.372;2022-10-16T05:05:16;10.09;75.75
64918;HTU21D;52176;44.858;38.372;2022-10-16T05:07:47;10.14;75.69
64918;HTU21D;52176;44.858;38.372;2022-10-16T05:10:15;10.22;75.58
64918;HTU21D;52176;44.858;38.372;2022-10-16T05:12:41;10.31;75.53
64918;HTU21D;52176;44.858;38.372;2022-10-16T05:15:07;10.42;75.44
64918;HTU21D;52176;44.858;38.372;2022-10-16T05:17:33;10.50;75.28
64918;HTU21D;52176;44.858;38.372;2022-10-16T05:19:59;10.58;75.18
64918;HTU21D;52176;44.858;38.372;2022-10-16T05:22:25;10.66;75.11
64918;HTU21D;52176;44.858;38.372;2022-10-16T05:24:51;10.75;74.99
64918;HTU21D;52176;44.858;38.372;2022-10-16T05:27:16;10.78;74.85
64918;HTU21D;52176;44.858;38.372;2022-10-16T05:29:45;10.81;74.80
64918;HTU21D;52176;44.858;38.372;2022-10-16T05:32:12;10.83;74.74
64918;HTU21D;52176;44.858;38.372;2022-10-16T05:34:38;10.86;74.69
64918;HTU21D;52176;44.858;38.372;2022-10-16T05:37:04;10.87;74.54
64918;HTU21D;52176;44.858;38.372;2022-10-16T05:39:30;10.89;74.50
64918;HTU21D;52176;44.858;38.372;2022-10-16T05:41:56;10.90;74.47
64918;HTU21D;52176;44.858;38.372;2022-10-16T05:44:22;10.95;74.44
64918;HTU21D;52176;44.858;38.372;2022-10-16T05:46:48;11.01;74.39
64918;HTU21D;52176;44.858;38.372;2022-10-16T05:49:13;11.05;74.24
64918;HTU21D;52176;44.858;38.372;2022-10-16T05:51:39;11.12;74.21
64918;HTU21D;52176;44.858;38.372;2022-10-16T05:54:06;11.17;74.20
64918;HTU21D;52176;44.858;38.372;2022-10-16T05:56:32;11.29;74.09
64918;HTU21D;52176;44.858;38.372;2022-10-16T05:58:58;11.38;73.93
64918;HTU21D;52176;44.858;38.372;2022-10-16T06:01:24;11.45;73.83
64918;HTU21D;52176;44.858;38.372;2022-10-16T06:03:50;11.51;73.71
64918;HTU21D;52176;44.858;38.372;2022-10-16T06:06:18;11.58;73.59
64918;HTU21D;52176;44.858;38.372;2022-10-16T06:08:44;11.63;73.53
64918;HTU21D;52176;44.858;38.372;2022-10-16T06:11:15;11.70;73.44
64918;HTU21D;52176;44.858;38.372;2022-10-16T06:13:41;11.77;73.32
64918;HTU21D;52176;44.858;38.372;2022-10-16T06:16:08;11.86;73.25
64918;HTU21D;52176;44.858;38.372;2022-10-16T06:18:34;11.96;73.18
64918;HTU21D;52176;44.858;38.372;2022-10-16T06:21:06;12.05;73.09
64918;HTU21D;52176;44.858;38.372;2022-10-16T06:23:32;12.17;72.83
64918;HTU21D;52176;44.858;38.372;2022-10-16T06:26:10;12.25;72.73
64918;HTU21D;52176;44.858;38.372;2022-10-16T06:28:37;12.32;72.70
64918;HTU21D;52176;44.858;38.372;2022-10-16T06:31:03;12.43;72.61
64918;HTU21D;52176;44.858;38.372;2022-10-16T06:33:29;12.56;72.48
64918;HTU21D;52176;44.858;38.372;2022-10-16T06:36:05;12.67;72.35
64918;HTU21D;52176;44.858;38.372;2022-10-16T06:38:32;12.77;72.21
64918;HTU21D;52176;44.858;38.372;2022-10-16T06:40:58;12.89;72.08
64918;HTU21D;52176;44.858;38.372;2022-10-16T06:43:24;12.97;71.98
64918;HTU21D;52176;44.858;38.372;2022-10-16T06:45:53;13.08;71.94
64918;HTU21D;52176;44.858;38.372;2022-10-16T06:48:19;13.20;71.72
64918;HTU21D;52176;44.858;38.372;2022-10-16T06:51:02;13.29;71.63
64918;HTU21D;52176;44.858;38.372;2022-10-16T06:53:28;13.45;71.51
64918;HTU21D;52176;44.858;38.372;2022-10-16T06:55:55;13.59;71.30
64918;HTU21D;52176;44.858;38.372;2022-10-16T06:58:21;13.67;71.02
64918;HTU21D;52176;44.858;38.372;2022-10-16T07:00:47;13.74;71.00
64918;HTU21D;52176;44.858;38.372;2022-10-16T07:03:13;13.78;70.75
64918;HTU21D;52176;44.858;38.372;2022-10-16T07:05:40;13.83;70.77
64918;HTU21D;52176;44.858;38.372;2022-10-16T07:08:05;13.89;70.46
64918;HTU21D;52176;44.858;38.372;2022-10-16T07:10:32;13.92;70.35
64918;HTU21D;52176;44.858;38.372;2022-10-16T07:12:58;13.97;70.51
64918;HTU21D;52176;44.858;38.372;2022-10-16T07:15:24;14.11;70.43
64918;HTU21D;52176;44.858;38.372;2022-10-16T07:17:50;14.25;70.21
64918;HTU21D;52176;44.858;38.372;2022-10-16T07:20:15;14.37;69.95
64918;HTU21D;52176;44.858;38.372;2022-10-16T07:22:41;14.42;69.80
64918;HTU21D;52176;44.858;38.372;2022-10-16T07:25:07;14.52;69.76
64918;HTU21D;52176;44.858;38.372;2022-10-16T07:27:33;14.68;69.60
64918;HTU21D;52176;44.858;38.372;2022-10-16T07:29:59;14.83;69.36
64918;HTU21D;52176;44.858;38.372;2022-10-16T07:32:25;14.94;69.05
64918;HTU21D;52176;44.858;38.372;2022-10-16T07:34:51;14.99;68.84
64918;HTU21D;52176;44.858;38.372;2022-10-16T07:37:17;15.06;68.81
64918;HTU21D;52176;44.858;38.372;2022-10-16T07:39:43;15.15;68.68
64918;HTU21D;52176;44.858;38.372;2022-10-16T07:42:08;15.27;68.56
64918;HTU21D;52176;44.858;38.372;2022-10-16T07:44:34;15.37;68.34
64918;HTU21D;52176;44.858;38.372;2022-10-16T07:47:00;15.46;67.95
64918;HTU21D;52176;44.858;38.372;2022-10-16T07:49:26;15.55;68.02
64918;HTU21D;52176;44.858;38.372;2022-10-16T07:51:52;15.69;67.92
64918;HTU21D;52176;44.858;38.372;2022-10-16T07:54:17;15.83;67.68
64918;HTU21D;52176;44.858;38.372;2022-10-16T07:56:43;15.95;67.32
64918;HTU21D;52176;44.858;38.372;2022-10-16T07:59:09;15.99;67.25
64918;HTU21D;52176;44.858;38.372;2022-10-16T08:01:35;16.07;67.07
64918;HTU21D;52176;44.858;38.372;2022-10-16T08:04:00;16.26;66.91
64918;HTU21D;52176;44.858;38.372;2022-10-16T08:06:26;16.42;66.69
64918;HTU21D;52176;44.858;38.372;2022-10-16T08:08:52;16.70;66.43
64918;HTU21D;52176;44.858;38.372;2022-10-16T08:11:18;16.93;65.78
64918;HTU21D;52176;44.858;38.372;2022-10-16T08:13:44;17.13;65.55
64918;HTU21D;52176;44.858;38.372;2022-10-16T08:16:10;17.36;65.11
64918;HTU21D;52176;44.858;38.372;2022-10-16T08:18:37;17.59;64.75
64918;HTU21D;52176;44.858;38.372;2022-10-16T08:21:03;17.84;64.32
64918;HTU21D;52176;44.858;38.372;2022-10-16T08:23:30;18.15;63.74
64918;HTU21D;52176;44.858;38.372;2022-10-16T08:25:56;18.43;63.02
64918;HTU21D;52176;44.858;38.372;2022-10-16T08:28:26;18.79;62.51
64918;HTU21D;52176;44.858;38.372;2022-10-16T08:30:52;19.08;61.76
64918;HTU21D;52176;44.858;38.372;2022-10-16T08:33:18;19.35;61.17
64918;HTU21D;52176;44.858;38.372;2022-10-16T08:35:53;19.82;60.70
64918;HTU21D;52176;44.858;38.372;2022-10-16T08:38:20;20.43;59.82
64918;HTU21D;52176;44.858;38.372;2022-10-16T08:40:46;20.98;58.83
64918;HTU21D;52176;44.858;38.372;2022-10-16T08:50:57;22.50;55.61
64918;HTU21D;52176;44.858;38.372;2022-10-16T08:56:08;22.83;55.25
64918;HTU21D;52176;44.858;38.372;2022-10-16T08:58:33;22.86;54.36
64918;HTU21D;52176;44.858;38.372;2022-10-16T09:01:11;22.68;54.21
64918;HTU21D;52176;44.858;38.372;2022-10-16T09:03:56;22.37;54.60
64918;HTU21D;52176;44.858;38.372;2022-10-16T09:12:00;22.67;54.68
64918;HTU21D;52176;44.858;38.372;2022-10-16T09:16:53;22.88;53.78
64918;HTU21D;52176;44.858;38.372;2022-10-16T09:19:29;23.08;53.67
64918;HTU21D;52176;44.858;38.372;2022-10-16T09:21:57;23.15;52.65
64918;HTU21D;52176;44.858;38.372;2022-10-16T09:24:25;22.98;53.25
64918;HTU21D;52176;44.858;38.372;2022-10-16T09:26:51;22.75;53.50
64918;HTU21D;52176;44.858;38.372;2022-10-16T09:29:18;22.46;53.65
64918;HTU21D;52176;44.858;38.372;2022-10-16T09:31:50;22.14;54.35
64918;HTU21D;52176;44.858;38.372;2022-10-16T09:34:30;21.87;54.93
64918;HTU21D;52176;44.858;38.372;2022-10-16T09:36:57;21.75;55.27
64918;HTU21D;52176;44.858;38.372;2022-10-16T09:39:24;21.67;55.61
64918;HTU21D;52176;44.858;38.372;2022-10-16T09:41:50;21.75;55.76
64918;HTU21D;52176;44.858;38.372;2022-10-16T09:46:49;21.65;55.66
64918;HTU21D;52176;44.858;38.372;2022-10-16T09:49:22;21.55;56.01
64918;HTU21D;52176;44.858;38.372;2022-10-16T09:51:49;21.44;56.09
64918;HTU21D;52176;44.858;38.372;2022-10-16T09:54:16;21.35;56.29
64918;HTU21D;52176;44.858;38.372;2022-10-16T09:56:42;21.40;56.49
64918;HTU21D;52176;44.858;38.372;2022-10-16T09:59:12;21.52;56.24
64918;HTU21D;52176;44.858;38.372;2022-10-16T10:01:39;21.69;56.27
64918;HTU21D;52176;44.858;38.372;2022-10-16T10:04:05;21.82;56.03
64918;HTU21D;52176;44.858;38.372;2022-10-16T10:09:00;21.50;56.52
64918;HTU21D;52176;44.858;38.372;2022-10-16T10:11:39;21.45;56.82
64918;HTU21D;52176;44.858;38.372;2022-10-16T10:14:06;21.36;57.06
64918;HTU21D;52176;44.858;38.372;2022-10-16T10:16:35;21.25;57.22
64918;HTU21D;52176;44.858;38.372;2022-10-16T10:19:01;21.20;57.47
64918;HTU21D;52176;44.858;38.372;2022-10-16T10:21:27;21.17;57.62
64918;HTU21D;52176;44.858;38.372;2022-10-16T10:23:56;21.18;57.74
64918;HTU21D;52176;44.858;38.372;2022-10-16T10:26:26;21.25;57.83
64918;HTU21D;52176;44.858;38.372;2022-10-16T10:33:54;21.05;58.18
64918;HTU21D;52176;44.858;38.372;2022-10-16T10:39:09;20.91;58.39
64918;HTU21D;52176;44.858;38.372;2022-10-16T10:44:18;20.53;59.16
64918;HTU21D;52176;44.858;38.372;2022-10-16T10:46:55;20.39;59.42
64918;HTU21D;52176;44.858;38.372;2022-10-16T10:54:40;19.99;60.45
64918;HTU21D;52176;44.858;38.372;2022-10-16T10:57:16;19.92;60.73
64918;HTU21D;52176;44.858;38.372;2022-10-16T11:00:03;19.88;60.90
64918;HTU21D;52176;44.858;38.372;2022-10-16T11:07:32;19.88;61.28
64918;HTU21D;52176;44.858;38.372;2022-10-16T11:10:03;19.91;61.30
64918;HTU21D;52176;44.858;38.372;2022-10-16T11:12:34;19.94;61.28
64918;HTU21D;52176;44.858;38.372;2022-10-16T11:17:53;20.01;61.27
64918;HTU21D;52176;44.858;38.372;2022-10-16T11:20:27;20.00;61.21
64918;HTU21D;52176;44.858;38.372;2022-10-16T11:23:00;19.96;61.31
64918;HTU21D;52176;44.858;38.372;2022-10-16T11:25:28;19.94;61.50
64918;HTU21D;52176;44.858;38.372;2022-10-16T11:30:33;19.94;61.53
64918;HTU21D;52176;44.858;38.372;2022-10-16T11:40:43;19.86;61.65
64918;HTU21D;52176;44.858;38.372;2022-10-16T11:43:16;19.84;61.70
64918;HTU21D;52176;44.858;38.372;2022-10-16T11:45:43;19.82;61.71
64918;HTU21D;52176;44.858;38.372;2022-10-16T11:48:23;19.76;61.75
64918;HTU21D;52176;44.858;38.372;2022-10-16T11:50:52;19.73;61.86
64918;HTU21D;52176;44.858;38.372;2022-10-16T11:54:02;19.71;61.96
64918;HTU21D;52176;44.858;38.372;2022-10-16T11:56:11;19.67;62.03
64918;HTU21D;52176;44.858;38.372;2022-10-16T11:58:40;19.66;62.05
64918;HTU21D;52176;44.858;38.372;2022-10-16T12:04:40;19.65;62.12
64918;HTU21D;52176;44.858;38.372;2022-10-16T12:06:36;19.68;62.20
64918;HTU21D;52176;44.858;38.372;2022-10-16T12:09:03;19.72;62.18
64918;HTU21D;52176;44.858;38.372;2022-10-16T12:19:17;19.82;61.94
64918;HTU21D;52176;44.858;38.372;2022-10-16T12:21:43;19.81;61.87
64918;HTU21D;52176;44.858;38.372;2022-10-16T12:24:20;19.76;61.79
64918;HTU21D;52176;44.858;38.372;2022-10-16T12:26:46;19.69;61.86
64918;HTU21D;52176;44.858;38.372;2022-10-16T12:31:42;19.57;62.05
64918;HTU21D;52176;44.858;38.372;2022-10-16T12:34:28;19.54;62.15
64918;HTU21D;52176;44.858;38.372;2022-10-16T12:36:55;19.48;62.15
64918;HTU21D;52176;44.858;38.372;2022-10-16T12:39:22;19.43;62.21
64918;HTU21D;52176;44.858;38.372;2022-10-16T12:41:59;19.38;62.26
64918;HTU21D;52176;44.858;38.372;2022-10-16T12:44:31;19.35;62.28
64918;HTU21D;52176;44.858;38.372;2022-10-16T12:46:57;19.28;62.25
64918;HTU21D;52176;44.858;38.372;2022-10-16T12:49:47;19.25;62.41
64918;HTU21D;52176;44.858;38.372;2022-10-16T12:52:54;19.23;62.38
64918;HTU21D;52176;44.858;38.372;2022-10-16T12:55:03;19.17;62.51
64918;HTU21D;52176;44.858;38.372;2022-10-16T13:00:17;19.08;62.67
64918;HTU21D;52176;44.858;38.372;2022-10-16T13:18:22;18.86;63.30
64918;HTU21D;52176;44.858;38.372;2022-10-16T13:23:00;18.77;63.54
64918;HTU21D;52176;44.858;38.372;2022-10-16T13:27:55;18.67;63.73
64918;HTU21D;52176;44.858;38.372;2022-10-16T13:30:22;18.63;63.83
64918;HTU21D;52176;44.858;38.372;2022-10-16T13:35:47;18.53;64.08
64918;HTU21D;52176;44.858;38.372;2022-10-16T13:38:15;18.46;64.27
64918;HTU21D;52176;44.858;38.372;2022-10-16T13:40:54;18.39;64.45
64918;HTU21D;52176;44.858;38.372;2022-10-16T13:43:25;18.33;64.64
64918;HTU21D;52176;44.858;38.372;2022-10-16T13:48:20;18.21;64.92
64918;HTU21D;52176;44.858;38.372;2022-10-16T13:50:46;18.15;64.98
64918;HTU21D;52176;44.858;38.372;2022-10-16T13:53:23;18.09;65.17
64918;HTU21D;52176;44.858;38.372;2022-10-16T13:55:49;18.05;65.26
64918;HTU21D;52176;44.858;38.372;2022-10-16T13:58:15;18.00;65.44
64918;HTU21D;52176;44.858;38.372;2022-10-16T14:00:42;17.94;65.62
64918;HTU21D;52176;44.858;38.372;2022-10-16T14:03:18;17.89;65.68
64918;HTU21D;52176;44.858;38.372;2022-10-16T14:05:49;17.81;65.82
64918;HTU21D;52176;44.858;38.372;2022-10-16T14:08:15;17.76;65.88
64918;HTU21D;52176;44.858;38.372;2022-10-16T14:10:41;17.70;66.04
64918;HTU21D;52176;44.858;38.372;2022-10-16T14:13:08;17.63;66.28
64918;HTU21D;52176;44.858;38.372;2022-10-16T14:15:38;17.56;66.45
64918;HTU21D;52176;44.858;38.372;2022-10-16T14:18:04;17.49;66.59
64918;HTU21D;52176;44.858;38.372;2022-10-16T14:20:31;17.44;66.66
64918;HTU21D;52176;44.858;38.372;2022-10-16T14:23:01;17.37;66.94
64918;HTU21D;52176;44.858;38.372;2022-10-16T14:25:28;17.29;67.06
64918;HTU21D;52176;44.858;38.372;2022-10-16T14:30:24;17.15;67.52
64918;HTU21D;52176;44.858;38.372;2022-10-16T14:33:00;17.06;67.57
64918;HTU21D;52176;44.858;38.372;2022-10-16T14:35:31;17.01;67.71
64918;HTU21D;52176;44.858;38.372;2022-10-16T14:37:57;16.93;67.81
64918;HTU21D;52176;44.858;38.372;2022-10-16T14:40:34;16.86;68.01
64918;HTU21D;52176;44.858;38.372;2022-10-16T14:43:01;16.79;68.18
64918;HTU21D;52176;44.858;38.372;2022-10-16T14:45:28;16.74;68.37
64918;HTU21D;52176;44.858;38.372;2022-10-16T14:47:58;16.67;68.54
64918;HTU21D;52176;44.858;38.372;2022-10-16T14:50:25;16.62;68.77
64918;HTU21D;52176;44.858;38.372;2022-10-16T14:52:51;16.57;68.98
64918;HTU21D;52176;44.858;38.372;2022-10-16T14:55:17;16.52;69.07
64918;HTU21D;52176;44.858;38.372;2022-10-16T14:57:44;16.49;69.23
64918;HTU21D;52176;44.858;38.372;2022-10-16T15:00:13;16.45;69.30
64918;HTU21D;52176;44.858;38.372;2022-10-16T15:02:40;16.41;69.47
64918;HTU21D;52176;44.858;38.372;2022-10-16T15:05:12;16.36;69.51
64918;HTU21D;52176;44.858;38.372;2022-10-16T15:07:38;16.32;69.68
64918;HTU21D;52176;44.858;38.372;2022-10-16T15:10:04;16.28;69.76
64918;HTU21D;52176;44.858;38.372;2022-10-16T15:12:30;16.25;69.82
64918;HTU21D;52176;44.858;38.372;2022-10-16T15:14:59;16.20;69.93
64918;HTU21D;52176;44.858;38.372;2022-10-16T15:17:25;16.16;70.00
64918;HTU21D;52176;44.858;38.372;2022-10-16T15:19:51;16.12;70.01
64918;HTU21D;52176;44.858;38.372;2022-10-16T15:22:17;16.07;70.31
64918;HTU21D;52176;44.858;38.372;2022-10-16T15:24:43;16.03;70.34
64918;HTU21D;52176;44.858;38.372;2022-10-16T15:27:08;15.98;70.42
64918;HTU21D;52176;44.858;38.372;2022-10-16T15:29:34;15.93;70.50
64918;HTU21D;52176;44.858;38.372;2022-10-16T15:32:00;15.89;70.62
64918;HTU21D;52176;44.858;38.372;2022-10-16T15:34:26;15.85;70.68
64918;HTU21D;52176;44.858;38.372;2022-10-16T15:36:51;15.81;70.72
64918;HTU21D;52176;44.858;38.372;2022-10-16T15:39:18;15.77;70.73
64918;HTU21D;52176;44.858;38.372;2022-10-16T15:41:47;15.73;70.61
64918;HTU21D;52176;44.858;38.372;2022-10-16T15:44:19;15.69;70.67
64918;HTU21D;52176;44.858;38.372;2022-10-16T15:46:45;15.63;70.81
64918;HTU21D;52176;44.858;38.372;2022-10-16T15:49:12;15.61;70.81
64918;HTU21D;52176;44.858;38.372;2022-10-16T15:51:38;15.57;70.80
64918;HTU21D;52176;44.858;38.372;2022-10-16T15:54:04;15.55;70.80
64918;HTU21D;52176;44.858;38.372;2022-10-16T15:56:30;15.51;70.82
64918;HTU21D;52176;44.858;38.372;2022-10-16T15:58:59;15.47;70.84
64918;HTU21D;52176;44.858;38.372;2022-10-16T16:01:25;15.44;70.84
64918;HTU21D;52176;44.858;38.372;2022-10-16T16:03:54;15.41;70.84
64918;HTU21D;52176;44.858;38.372;2022-10-16T16:06:21;15.34;70.91
64918;HTU21D;52176;44.858;38.372;2022-10-16T16:08:47;15.31;70.95
64918;HTU21D;52176;44.858;38.372;2022-10-16T16:11:13;15.27;70.97
64918;HTU21D;52176;44.858;38.372;2022-10-16T16:13:39;15.23;71.00
64918;HTU21D;52176;44.858;38.372;2022-10-16T16:16:10;15.19;71.11
64918;HTU21D;52176;44.858;38.372;2022-10-16T16:18:36;15.15;71.10
64918;HTU21D;52176;44.858;38.372;2022-10-16T16:21:02;15.11;71.29
64918;HTU21D;52176;44.858;38.372;2022-10-16T16:23:28;15.08;71.26
64918;HTU21D;52176;44.858;38.372;2022-10-16T16:28:32;15.01;71.54
64918;HTU21D;52176;44.858;38.372;2022-10-16T16:30:57;15.00;71.59
64918;HTU21D;52176;44.858;38.372;2022-10-16T16:33:23;14.97;71.60
64918;HTU21D;52176;44.858;38.372;2022-10-16T16:35:49;14.95;71.81
64918;HTU21D;52176;44.858;38.372;2022-10-16T16:38:15;14.92;71.85
64918;HTU21D;52176;44.858;38.372;2022-10-16T16:40:41;14.88;71.98
64918;HTU21D;52176;44.858;38.372;2022-10-16T16:43:07;14.85;72.03
64918;HTU21D;52176;44.858;38.372;2022-10-16T16:45:36;14.82;72.13
64918;HTU21D;52176;44.858;38.372;2022-10-16T16:48:01;14.80;72.19
64918;HTU21D;52176;44.858;38.372;2022-10-16T16:50:27;14.75;72.37
64918;HTU21D;52176;44.858;38.372;2022-10-16T16:52:53;14.74;72.52
64918;HTU21D;52176;44.858;38.372;2022-10-16T16:55:19;14.70;72.63
64918;HTU21D;52176;44.858;38.372;2022-10-16T16:57:47;14.68;72.65
64918;HTU21D;52176;44.858;38.372;2022-10-16T17:00:13;14.64;72.75
64918;HTU21D;52176;44.858;38.372;2022-10-16T17:02:39;14.63;72.77
64918;HTU21D;52176;44.858;38.372;2022-10-16T17:05:08;14.59;72.87
64918;HTU21D;52176;44.858;38.372;2022-10-16T17:07:34;14.56;72.98
64918;HTU21D;52176;44.858;38.372;2022-10-16T17:10:00;14.54;73.12
64918;HTU21D;52176;44.858;38.372;2022-10-16T17:12:28;14.52;73.22
64918;HTU21D;52176;44.858;38.372;2022-10-16T17:14:54;14.51;73.28
64918;HTU21D;52176;44.858;38.372;2022-10-16T17:17:20;14.50;73.43